sensor_id;sensor_type;location;lat;lon;timestamp;P1;durP1;ratioP1;P2;durP2;ratioP2
2944;SDS011;1482;51.398;7.128;2022-11-20T00:02:24;29.87;;;18.90;;
2944;SDS011;1482;51.398;7.128;2022-11-20T00:04:49;28.87;;;18.50;;
2944;SDS011;1482;51.398;7.128;2022-11-20T00:07:15;26.53;;;17.80;;
2944;SDS011;1482;51.398;7.128;2022-11-20T00:09:40;27.50;;;17.57;;
2944;SDS011;1482;51.398;7.128;2022-11-20T00:12:06;29.30;;;18.37;;
2944;SDS011;1482;51.398;7.128;2022-11-20T00:14:31;30.20;;;18.53;;
2944;SDS011;1482;51.398;7.128;2022-11-20T00:16:57;33.60;;;19.40;;
2944;SDS011;1482;51.398;7.128;2022-11-20T00:19:22;30.87;;;18.93;;
2944;SDS011;1482;51.398;7.128;2022-11-20T00:21:48;31.07;;;20.97;;
2944;SDS011;1482;51.398;7.128;2022-11-20T00:24:16;29.37;;;19.23;;
2944;SDS011;1482;51.398;7.128;2022-11-20T00:26:42;33.60;;;20.10;;
2944;SDS011;1482;51.398;7.128;2022-11-20T00:29:08;33.87;;;20.07;;
2944;SDS011;1482;51.398;7.128;2022-11-20T00:31:35;32.70;;;21.10;;
2944;SDS011;1482;51.398;7.128;2022-11-20T00:34:00;28.30;;;17.97;;
2944;SDS011;1482;51.398;7.128;2022-11-20T00:36:26;28.17;;;18.63;;
2944;SDS011;1482;51.398;7.128;2022-11-20T00:38:54;34.23;;;20.93;;
2944;SDS011;1482;51.398;7.128;2022-11-20T00:41:21;34.20;;;19.23;;
2944;SDS011;1482;51.398;7.128;2022-11-20T00:43:47;38.57;;;20.40;;
2944;SDS011;1482;51.398;7.128;2022-11-20T00:46:14;33.37;;;19.00;;
2944;SDS011;1482;51.398;7.128;2022-11-20T00:48:41;33.80;;;20.43;;
2944;SDS011;1482;51.398;7.128;2022-11-20T00:51:07;36.53;;;22.23;;
2944;SDS011;1482;51.398;7.128;2022-11-20T00:53:33;34.27;;;22.50;;
2944;SDS011;1482;51.398;7.128;2022-11-20T00:55:59;38.00;;;20.37;;
2944;SDS011;1482;51.398;7.128;2022-11-20T00:58:30;34.47;;;20.67;;
2944;SDS011;1482;51.398;7.128;2022-11-20T01:01:00;31.93;;;18.20;;
2944;SDS011;1482;51.398;7.128;2022-11-20T01:03:31;28.13;;;18.30;;
2944;SDS011;1482;51.398;7.128;2022-11-20T01:08:37;26.00;;;18.00;;
2944;SDS011;1482;51.398;7.128;2022-11-20T01:11:05;36.50;;;19.30;;
2944;SDS011;1482;51.398;7.128;2022-11-20T01:13:33;27.53;;;17.90;;
2944;SDS011;1482;51.398;7.128;2022-11-20T01:16:25;33.57;;;17.70;;
2944;SDS011;1482;51.398;7.128;2022-11-20T01:19:01;30.60;;;18.40;;
2944;SDS011;1482;51.398;7.128;2022-11-20T01:21:32;27.33;;;17.80;;
2944;SDS011;1482;51.398;7.128;2022-11-20T01:23:59;27.03;;;15.90;;
2944;SDS011;1482;51.398;7.128;2022-11-20T01:26:29;31.10;;;16.90;;
2944;SDS011;1482;51.398;7.128;2022-11-20T01:28:57;35.80;;;20.10;;
2944;SDS011;1482;51.398;7.128;2022-11-20T01:31:31;33.73;;;20.40;;
2944;SDS011;1482;51.398;7.128;2022-11-20T01:34:00;36.37;;;20.70;;
2944;SDS011;1482;51.398;7.128;2022-11-20T01:36:30;28.50;;;18.07;;
2944;SDS011;1482;51.398;7.128;2022-11-20T01:38:58;33.67;;;20.40;;
2944;SDS011;1482;51.398;7.128;2022-11-20T01:41:26;26.20;;;16.90;;
2944;SDS011;1482;51.398;7.128;2022-11-20T01:44:13;29.83;;;19.13;;
2944;SDS011;1482;51.398;7.128;2022-11-20T01:47:02;26.33;;;17.47;;
2944;SDS011;1482;51.398;7.128;2022-11-20T01:49:38;32.97;;;18.67;;
2944;SDS011;1482;51.398;7.128;2022-11-20T01:52:16;29.53;;;19.00;;
2944;SDS011;1482;51.398;7.128;2022-11-20T01:54:46;27.43;;;17.70;;
2944;SDS011;1482;51.398;7.128;2022-11-20T01:57:25;28.43;;;16.90;;
2944;SDS011;1482;51.398;7.128;2022-11-20T01:59:57;30.23;;;18.70;;
2944;SDS011;1482;51.398;7.128;2022-11-20T02:02:26;32.73;;;20.30;;
2944;SDS011;1482;51.398;7.128;2022-11-20T02:04:53;33.87;;;19.63;;
2944;SDS011;1482;51.398;7.128;2022-11-20T02:07:22;34.50;;;20.90;;
2944;SDS011;1482;51.398;7.128;2022-11-20T02:09:48;29.70;;;17.07;;
2944;SDS011;1482;51.398;7.128;2022-11-20T02:12:14;39.00;;;20.83;;
2944;SDS011;1482;51.398;7.128;2022-11-20T02:14:59;40.33;;;23.13;;
2944;SDS011;1482;51.398;7.128;2022-11-20T02:17:25;42.43;;;22.03;;
2944;SDS011;1482;51.398;7.128;2022-11-20T02:19:51;29.67;;;16.43;;
2944;SDS011;1482;51.398;7.128;2022-11-20T02:22:19;28.67;;;17.33;;
2944;SDS011;1482;51.398;7.128;2022-11-20T02:24:59;32.23;;;18.97;;
2944;SDS011;1482;51.398;7.128;2022-11-20T02:27:28;24.23;;;15.83;;
2944;SDS011;1482;51.398;7.128;2022-11-20T02:30:01;21.53;;;14.60;;
2944;SDS011;1482;51.398;7.128;2022-11-20T02:32:30;25.83;;;17.90;;
2944;SDS011;1482;51.398;7.128;2022-11-20T02:34:58;29.77;;;19.20;;
2944;SDS011;1482;51.398;7.128;2022-11-20T02:37:32;30.60;;;20.07;;
2944;SDS011;1482;51.398;7.128;2022-11-20T02:40:00;30.93;;;17.50;;
2944;SDS011;1482;51.398;7.128;2022-11-20T02:42:25;29.20;;;18.80;;
2944;SDS011;1482;51.398;7.128;2022-11-20T02:44:51;29.80;;;18.03;;
2944;SDS011;1482;51.398;7.128;2022-11-20T02:47:16;28.87;;;19.20;;
2944;SDS011;1482;51.398;7.128;2022-11-20T02:49:42;26.83;;;18.47;;
2944;SDS011;1482;51.398;7.128;2022-11-20T02:52:07;29.23;;;18.80;;
2944;SDS011;1482;51.398;7.128;2022-11-20T02:54:33;33.00;;;20.47;;
2944;SDS011;1482;51.398;7.128;2022-11-20T02:56:58;27.93;;;19.40;;
2944;SDS011;1482;51.398;7.128;2022-11-20T02:59:24;27.00;;;18.70;;
2944;SDS011;1482;51.398;7.128;2022-11-20T03:01:49;25.97;;;17.97;;
2944;SDS011;1482;51.398;7.128;2022-11-20T03:04:15;24.77;;;18.80;;
2944;SDS011;1482;51.398;7.128;2022-11-20T03:06:40;34.40;;;20.23;;
2944;SDS011;1482;51.398;7.128;2022-11-20T03:09:06;30.07;;;20.40;;
2944;SDS011;1482;51.398;7.128;2022-11-20T03:11:31;29.80;;;19.33;;
2944;SDS011;1482;51.398;7.128;2022-11-20T03:13:57;50.63;;;27.63;;
2944;SDS011;1482;51.398;7.128;2022-11-20T03:16:23;40.80;;;24.20;;
2944;SDS011;1482;51.398;7.128;2022-11-20T03:18:49;39.43;;;21.70;;
2944;SDS011;1482;51.398;7.128;2022-11-20T03:21:16;37.13;;;21.10;;
2944;SDS011;1482;51.398;7.128;2022-11-20T03:23:42;34.70;;;20.67;;
2944;SDS011;1482;51.398;7.128;2022-11-20T03:28:34;27.00;;;18.00;;
2944;SDS011;1482;51.398;7.128;2022-11-20T03:31:07;23.40;;;17.07;;
2944;SDS011;1482;51.398;7.128;2022-11-20T03:33:34;27.10;;;17.43;;
2944;SDS011;1482;51.398;7.128;2022-11-20T03:36:03;27.03;;;16.23;;
2944;SDS011;1482;51.398;7.128;2022-11-20T03:38:30;26.10;;;18.47;;
2944;SDS011;1482;51.398;7.128;2022-11-20T03:41:16;29.13;;;17.13;;
2944;SDS011;1482;51.398;7.128;2022-11-20T03:43:47;24.37;;;17.00;;
2944;SDS011;1482;51.398;7.128;2022-11-20T03:46:14;21.60;;;15.07;;
2944;SDS011;1482;51.398;7.128;2022-11-20T03:48:39;21.67;;;15.40;;
2944;SDS011;1482;51.398;7.128;2022-11-20T03:51:09;26.47;;;15.43;;
2944;SDS011;1482;51.398;7.128;2022-11-20T03:53:40;28.43;;;17.33;;
2944;SDS011;1482;51.398;7.128;2022-11-20T03:56:06;29.07;;;18.83;;
2944;SDS011;1482;51.398;7.128;2022-11-20T03:58:33;34.90;;;18.83;;
2944;SDS011;1482;51.398;7.128;2022-11-20T04:01:07;37.23;;;20.77;;
2944;SDS011;1482;51.398;7.128;2022-11-20T04:03:38;23.77;;;16.50;;
2944;SDS011;1482;51.398;7.128;2022-11-20T04:06:05;32.53;;;19.83;;
2944;SDS011;1482;51.398;7.128;2022-11-20T04:08:53;28.20;;;18.37;;
2944;SDS011;1482;51.398;7.128;2022-11-20T04:11:21;27.40;;;17.53;;
2944;SDS011;1482;51.398;7.128;2022-11-20T04:13:52;32.63;;;19.43;;
2944;SDS011;1482;51.398;7.128;2022-11-20T04:16:19;28.73;;;17.83;;
2944;SDS011;1482;51.398;7.128;2022-11-20T04:18:45;23.93;;;18.30;;
2944;SDS011;1482;51.398;7.128;2022-11-20T04:21:11;26.80;;;17.77;;
2944;SDS011;1482;51.398;7.128;2022-11-20T04:23:37;24.60;;;16.43;;
2944;SDS011;1482;51.398;7.128;2022-11-20T04:26:10;29.93;;;18.20;;
2944;SDS011;1482;51.398;7.128;2022-11-20T04:28:37;24.93;;;17.43;;
2944;SDS011;1482;51.398;7.128;2022-11-20T04:33:30;25.20;;;15.97;;
2944;SDS011;1482;51.398;7.128;2022-11-20T04:35:59;28.90;;;17.80;;
2944;SDS011;1482;51.398;7.128;2022-11-20T04:38:26;26.70;;;16.73;;
2944;SDS011;1482;51.398;7.128;2022-11-20T04:40:55;25.30;;;17.20;;
2944;SDS011;1482;51.398;7.128;2022-11-20T04:43:24;25.67;;;15.23;;
2944;SDS011;1482;51.398;7.128;2022-11-20T04:45:50;24.93;;;15.40;;
2944;SDS011;1482;51.398;7.128;2022-11-20T04:48:16;26.90;;;16.00;;
2944;SDS011;1482;51.398;7.128;2022-11-20T04:50:42;21.50;;;15.07;;
2944;SDS011;1482;51.398;7.128;2022-11-20T04:53:07;19.77;;;15.10;;
2944;SDS011;1482;51.398;7.128;2022-11-20T04:55:33;18.80;;;13.47;;
2944;SDS011;1482;51.398;7.128;2022-11-20T04:57:58;20.60;;;14.10;;
2944;SDS011;1482;51.398;7.128;2022-11-20T05:00:24;23.50;;;13.17;;
2944;SDS011;1482;51.398;7.128;2022-11-20T05:02:49;22.93;;;14.50;;
2944;SDS011;1482;51.398;7.128;2022-11-20T05:05:15;22.03;;;14.37;;
2944;SDS011;1482;51.398;7.128;2022-11-20T05:07:40;22.27;;;13.80;;
2944;SDS011;1482;51.398;7.128;2022-11-20T05:10:06;22.30;;;15.53;;
2944;SDS011;1482;51.398;7.128;2022-11-20T05:12:32;22.90;;;15.63;;
2944;SDS011;1482;51.398;7.128;2022-11-20T05:14:57;17.37;;;12.47;;
2944;SDS011;1482;51.398;7.128;2022-11-20T05:17:23;19.87;;;13.63;;
2944;SDS011;1482;51.398;7.128;2022-11-20T05:19:48;20.77;;;14.23;;
2944;SDS011;1482;51.398;7.128;2022-11-20T05:22:14;21.33;;;13.83;;
2944;SDS011;1482;51.398;7.128;2022-11-20T05:24:39;18.87;;;13.40;;
2944;SDS011;1482;51.398;7.128;2022-11-20T05:27:05;17.90;;;13.53;;
2944;SDS011;1482;51.398;7.128;2022-11-20T05:29:30;25.80;;;16.10;;
2944;SDS011;1482;51.398;7.128;2022-11-20T05:31:56;29.83;;;16.40;;
2944;SDS011;1482;51.398;7.128;2022-11-20T05:34:21;33.23;;;17.83;;
2944;SDS011;1482;51.398;7.128;2022-11-20T05:36:47;28.17;;;16.07;;
2944;SDS011;1482;51.398;7.128;2022-11-20T05:39:12;25.90;;;17.20;;
2944;SDS011;1482;51.398;7.128;2022-11-20T05:41:38;25.77;;;17.20;;
2944;SDS011;1482;51.398;7.128;2022-11-20T05:44:03;26.87;;;17.97;;
2944;SDS011;1482;51.398;7.128;2022-11-20T05:46:29;25.53;;;16.87;;
2944;SDS011;1482;51.398;7.128;2022-11-20T05:48:55;27.70;;;18.10;;
2944;SDS011;1482;51.398;7.128;2022-11-20T05:51:22;22.40;;;16.43;;
2944;SDS011;1482;51.398;7.128;2022-11-20T05:53:47;27.57;;;16.90;;
2944;SDS011;1482;51.398;7.128;2022-11-20T05:56:14;27.37;;;18.10;;
2944;SDS011;1482;51.398;7.128;2022-11-20T05:58:42;27.30;;;17.90;;
2944;SDS011;1482;51.398;7.128;2022-11-20T06:03:44;26.53;;;18.03;;
2944;SDS011;1482;51.398;7.128;2022-11-20T06:06:12;29.77;;;18.97;;
2944;SDS011;1482;51.398;7.128;2022-11-20T06:08:38;29.33;;;20.07;;
2944;SDS011;1482;51.398;7.128;2022-11-20T06:11:04;30.33;;;21.23;;
2944;SDS011;1482;51.398;7.128;2022-11-20T06:13:31;41.90;;;22.37;;
2944;SDS011;1482;51.398;7.128;2022-11-20T06:15:57;29.73;;;20.00;;
2944;SDS011;1482;51.398;7.128;2022-11-20T06:18:23;30.43;;;20.23;;
2944;SDS011;1482;51.398;7.128;2022-11-20T06:20:58;24.50;;;19.20;;
2944;SDS011;1482;51.398;7.128;2022-11-20T06:23:25;26.53;;;18.30;;
2944;SDS011;1482;51.398;7.128;2022-11-20T06:25:52;29.53;;;20.03;;
2944;SDS011;1482;51.398;7.128;2022-11-20T06:28:17;28.00;;;19.07;;
2944;SDS011;1482;51.398;7.128;2022-11-20T06:30:46;28.20;;;20.03;;
2944;SDS011;1482;51.398;7.128;2022-11-20T06:33:11;32.10;;;21.03;;
2944;SDS011;1482;51.398;7.128;2022-11-20T06:35:37;33.77;;;22.47;;
2944;SDS011;1482;51.398;7.128;2022-11-20T06:38:02;24.67;;;19.53;;
2944;SDS011;1482;51.398;7.128;2022-11-20T06:40:28;35.70;;;23.50;;
2944;SDS011;1482;51.398;7.128;2022-11-20T06:42:54;26.70;;;19.90;;
2944;SDS011;1482;51.398;7.128;2022-11-20T06:45:20;31.03;;;22.60;;
2944;SDS011;1482;51.398;7.128;2022-11-20T06:47:46;30.43;;;22.20;;
2944;SDS011;1482;51.398;7.128;2022-11-20T06:50:11;34.60;;;23.20;;
2944;SDS011;1482;51.398;7.128;2022-11-20T06:52:37;28.00;;;20.57;;
2944;SDS011;1482;51.398;7.128;2022-11-20T06:55:03;33.30;;;23.83;;
2944;SDS011;1482;51.398;7.128;2022-11-20T06:57:29;34.53;;;24.00;;
2944;SDS011;1482;51.398;7.128;2022-11-20T06:59:55;31.73;;;22.47;;
2944;SDS011;1482;51.398;7.128;2022-11-20T07:02:20;29.70;;;21.80;;
2944;SDS011;1482;51.398;7.128;2022-11-20T07:04:46;32.03;;;22.70;;
2944;SDS011;1482;51.398;7.128;2022-11-20T07:07:11;33.03;;;23.50;;
2944;SDS011;1482;51.398;7.128;2022-11-20T07:09:37;34.27;;;22.63;;
2944;SDS011;1482;51.398;7.128;2022-11-20T07:12:02;30.67;;;20.80;;
2944;SDS011;1482;51.398;7.128;2022-11-20T07:14:28;32.20;;;20.67;;
2944;SDS011;1482;51.398;7.128;2022-11-20T07:16:54;31.73;;;21.23;;
2944;SDS011;1482;51.398;7.128;2022-11-20T07:19:19;30.40;;;20.80;;
2944;SDS011;1482;51.398;7.128;2022-11-20T07:21:45;29.77;;;22.67;;
2944;SDS011;1482;51.398;7.128;2022-11-20T07:24:10;30.17;;;21.50;;
2944;SDS011;1482;51.398;7.128;2022-11-20T07:26:36;32.03;;;22.30;;
2944;SDS011;1482;51.398;7.128;2022-11-20T07:29:01;30.80;;;21.97;;
2944;SDS011;1482;51.398;7.128;2022-11-20T07:31:27;30.30;;;20.90;;
2944;SDS011;1482;51.398;7.128;2022-11-20T07:33:52;22.27;;;17.27;;
2944;SDS011;1482;51.398;7.128;2022-11-20T07:36:18;31.47;;;19.90;;
2944;SDS011;1482;51.398;7.128;2022-11-20T07:38:43;26.70;;;19.17;;
2944;SDS011;1482;51.398;7.128;2022-11-20T07:41:09;27.20;;;19.23;;
2944;SDS011;1482;51.398;7.128;2022-11-20T07:43:34;30.87;;;20.30;;
2944;SDS011;1482;51.398;7.128;2022-11-20T07:46:00;32.33;;;20.43;;
2944;SDS011;1482;51.398;7.128;2022-11-20T07:48:25;29.20;;;19.50;;
2944;SDS011;1482;51.398;7.128;2022-11-20T07:50:54;30.07;;;19.87;;
2944;SDS011;1482;51.398;7.128;2022-11-20T07:53:21;25.63;;;18.10;;
2944;SDS011;1482;51.398;7.128;2022-11-20T07:55:47;22.90;;;16.07;;
2944;SDS011;1482;51.398;7.128;2022-11-20T07:58:13;25.77;;;17.60;;
2944;SDS011;1482;51.398;7.128;2022-11-20T08:00:39;24.73;;;17.47;;
2944;SDS011;1482;51.398;7.128;2022-11-20T08:03:05;23.70;;;17.00;;
2944;SDS011;1482;51.398;7.128;2022-11-20T08:05:31;23.40;;;16.70;;
2944;SDS011;1482;51.398;7.128;2022-11-20T08:07:56;19.33;;;14.30;;
2944;SDS011;1482;51.398;7.128;2022-11-20T08:10:22;24.23;;;16.93;;
2944;SDS011;1482;51.398;7.128;2022-11-20T08:12:49;23.70;;;16.27;;
2944;SDS011;1482;51.398;7.128;2022-11-20T08:15:33;18.03;;;14.80;;
2944;SDS011;1482;51.398;7.128;2022-11-20T08:18:03;24.80;;;17.10;;
2944;SDS011;1482;51.398;7.128;2022-11-20T08:20:36;22.17;;;19.37;;
2944;SDS011;1482;51.398;7.128;2022-11-20T08:23:03;23.63;;;15.70;;
2944;SDS011;1482;51.398;7.128;2022-11-20T08:25:31;14.70;;;12.93;;
2944;SDS011;1482;51.398;7.128;2022-11-20T08:27:58;15.27;;;13.03;;
2944;SDS011;1482;51.398;7.128;2022-11-20T08:30:25;13.50;;;12.10;;
2944;SDS011;1482;51.398;7.128;2022-11-20T08:32:51;14.17;;;12.47;;
2944;SDS011;1482;51.398;7.128;2022-11-20T08:35:16;15.53;;;14.13;;
2944;SDS011;1482;51.398;7.128;2022-11-20T08:37:45;17.37;;;15.77;;
2944;SDS011;1482;51.398;7.128;2022-11-20T08:40:11;16.20;;;14.60;;
2944;SDS011;1482;51.398;7.128;2022-11-20T08:42:37;17.87;;;16.23;;
2944;SDS011;1482;51.398;7.128;2022-11-20T08:45:10;19.80;;;15.47;;
2944;SDS011;1482;51.398;7.128;2022-11-20T08:47:35;17.73;;;14.80;;
2944;SDS011;1482;51.398;7.128;2022-11-20T08:50:01;30.40;;;16.30;;
2944;SDS011;1482;51.398;7.128;2022-11-20T08:52:26;17.90;;;16.00;;
2944;SDS011;1482;51.398;7.128;2022-11-20T08:54:52;17.93;;;15.93;;
2944;SDS011;1482;51.398;7.128;2022-11-20T08:57:17;21.10;;;17.77;;
2944;SDS011;1482;51.398;7.128;2022-11-20T08:59:43;20.63;;;16.50;;
2944;SDS011;1482;51.398;7.128;2022-11-20T09:02:08;22.43;;;16.33;;
2944;SDS011;1482;51.398;7.128;2022-11-20T09:04:34;21.43;;;16.70;;
2944;SDS011;1482;51.398;7.128;2022-11-20T09:07:00;20.27;;;14.70;;
2944;SDS011;1482;51.398;7.128;2022-11-20T09:09:25;17.27;;;14.50;;
2944;SDS011;1482;51.398;7.128;2022-11-20T09:11:51;19.60;;;14.40;;
2944;SDS011;1482;51.398;7.128;2022-11-20T09:14:17;23.27;;;16.60;;
2944;SDS011;1482;51.398;7.128;2022-11-20T09:16:44;23.50;;;15.90;;
2944;SDS011;1482;51.398;7.128;2022-11-20T09:19:10;24.40;;;17.40;;
2944;SDS011;1482;51.398;7.128;2022-11-20T09:21:36;24.40;;;16.67;;
2944;SDS011;1482;51.398;7.128;2022-11-20T09:24:02;19.87;;;15.27;;
2944;SDS011;1482;51.398;7.128;2022-11-20T09:26:29;20.13;;;15.80;;
2944;SDS011;1482;51.398;7.128;2022-11-20T09:28:54;18.93;;;14.90;;
2944;SDS011;1482;51.398;7.128;2022-11-20T09:31:24;23.00;;;15.77;;
2944;SDS011;1482;51.398;7.128;2022-11-20T09:33:51;16.97;;;13.60;;
2944;SDS011;1482;51.398;7.128;2022-11-20T09:36:17;14.40;;;12.40;;
2944;SDS011;1482;51.398;7.128;2022-11-20T09:38:43;21.67;;;14.90;;
2944;SDS011;1482;51.398;7.128;2022-11-20T09:43:50;22.43;;;15.73;;
2944;SDS011;1482;51.398;7.128;2022-11-20T09:46:25;21.63;;;15.47;;
2944;SDS011;1482;51.398;7.128;2022-11-20T09:51:42;15.03;;;11.70;;
2944;SDS011;1482;51.398;7.128;2022-11-20T09:56:46;17.90;;;12.20;;
2944;SDS011;1482;51.398;7.128;2022-11-20T09:59:36;16.10;;;11.70;;
2944;SDS011;1482;51.398;7.128;2022-11-20T10:02:14;15.47;;;11.13;;
2944;SDS011;1482;51.398;7.128;2022-11-20T10:05:06;17.77;;;12.90;;
2944;SDS011;1482;51.398;7.128;2022-11-20T10:07:39;12.00;;;10.30;;
2944;SDS011;1482;51.398;7.128;2022-11-20T10:11:04;12.10;;;9.60;;
2944;SDS011;1482;51.398;7.128;2022-11-20T10:30:10;11.20;;;8.60;;
2944;SDS011;1482;51.398;7.128;2022-11-20T10:32:39;13.07;;;8.50;;
2944;SDS011;1482;51.398;7.128;2022-11-20T10:36:14;10.33;;;8.17;;
2944;SDS011;1482;51.398;7.128;2022-11-20T10:38:25;15.03;;;9.60;;
2944;SDS011;1482;51.398;7.128;2022-11-20T10:41:25;9.80;;;7.70;;
2944;SDS011;1482;51.398;7.128;2022-11-20T10:44:05;10.33;;;8.30;;
2944;SDS011;1482;51.398;7.128;2022-11-20T10:47:01;11.40;;;8.10;;
2944;SDS011;1482;51.398;7.128;2022-11-20T10:49:28;10.50;;;8.10;;
2944;SDS011;1482;51.398;7.128;2022-11-20T10:52:04;11.37;;;8.73;;
2944;SDS011;1482;51.398;7.128;2022-11-20T11:00:13;14.90;;;10.20;;
2944;SDS011;1482;51.398;7.128;2022-11-20T11:02:43;14.30;;;9.90;;
2944;SDS011;1482;51.398;7.128;2022-11-20T11:08:29;12.80;;;8.20;;
2944;SDS011;1482;51.398;7.128;2022-11-20T11:11:02;10.87;;;8.60;;
2944;SDS011;1482;51.398;7.128;2022-11-20T11:13:50;15.50;;;10.57;;
2944;SDS011;1482;51.398;7.128;2022-11-20T11:16:23;16.63;;;8.90;;
2944;SDS011;1482;51.398;7.128;2022-11-20T11:18:50;13.50;;;10.20;;
2944;SDS011;1482;51.398;7.128;2022-11-20T11:21:21;13.80;;;10.90;;
2944;SDS011;1482;51.398;7.128;2022-11-20T11:24:00;15.50;;;9.47;;
2944;SDS011;1482;51.398;7.128;2022-11-20T11:26:28;12.40;;;8.50;;
2944;SDS011;1482;51.398;7.128;2022-11-20T11:31:25;14.77;;;10.47;;
2944;SDS011;1482;51.398;7.128;2022-11-20T11:33:51;14.00;;;11.33;;
2944;SDS011;1482;51.398;7.128;2022-11-20T11:36:21;18.23;;;10.50;;
2944;SDS011;1482;51.398;7.128;2022-11-20T11:38:50;19.93;;;10.53;;
2944;SDS011;1482;51.398;7.128;2022-11-20T11:41:22;16.53;;;10.97;;
2944;SDS011;1482;51.398;7.128;2022-11-20T11:43:52;14.03;;;11.13;;
2944;SDS011;1482;51.398;7.128;2022-11-20T11:46:38;18.60;;;11.40;;
2944;SDS011;1482;51.398;7.128;2022-11-20T11:51:36;18.97;;;11.30;;
2944;SDS011;1482;51.398;7.128;2022-11-20T11:54:16;16.67;;;11.83;;
2944;SDS011;1482;51.398;7.128;2022-11-20T11:56:47;19.30;;;11.30;;
2944;SDS011;1482;51.398;7.128;2022-11-20T11:59:16;16.93;;;12.40;;
2944;SDS011;1482;51.398;7.128;2022-11-20T12:02:01;18.17;;;11.67;;
2944;SDS011;1482;51.398;7.128;2022-11-20T12:04:40;19.40;;;12.17;;
2944;SDS011;1482;51.398;7.128;2022-11-20T12:07:15;60.70;;;31.40;;
2944;SDS011;1482;51.398;7.128;2022-11-20T12:10:00;24.33;;;16.50;;
2944;SDS011;1482;51.398;7.128;2022-11-20T12:12:29;21.90;;;15.90;;
2944;SDS011;1482;51.398;7.128;2022-11-20T12:15:12;19.13;;;11.70;;
2944;SDS011;1482;51.398;7.128;2022-11-20T12:17:47;19.70;;;12.80;;
2944;SDS011;1482;51.398;7.128;2022-11-20T12:20:13;20.23;;;12.53;;
2944;SDS011;1482;51.398;7.128;2022-11-20T12:23:01;18.70;;;13.73;;
2944;SDS011;1482;51.398;7.128;2022-11-20T12:25:50;19.53;;;13.30;;
2944;SDS011;1482;51.398;7.128;2022-11-20T12:28:23;20.63;;;13.33;;
2944;SDS011;1482;51.398;7.128;2022-11-20T12:31:22;17.20;;;11.57;;
2944;SDS011;1482;51.398;7.128;2022-11-20T12:34:24;30.73;;;17.97;;
2944;SDS011;1482;51.398;7.128;2022-11-20T12:37:10;19.53;;;13.00;;
2944;SDS011;1482;51.398;7.128;2022-11-20T12:42:56;19.07;;;12.33;;
2944;SDS011;1482;51.398;7.128;2022-11-20T12:46:08;19.37;;;13.27;;
2944;SDS011;1482;51.398;7.128;2022-11-20T12:48:52;19.60;;;13.53;;
2944;SDS011;1482;51.398;7.128;2022-11-20T12:51:39;23.83;;;14.80;;
2944;SDS011;1482;51.398;7.128;2022-11-20T12:59:54;19.90;;;13.77;;
2944;SDS011;1482;51.398;7.128;2022-11-20T13:07:39;23.40;;;15.23;;
2944;SDS011;1482;51.398;7.128;2022-11-20T13:10:05;21.63;;;13.60;;
2944;SDS011;1482;51.398;7.128;2022-11-20T13:12:44;24.07;;;15.10;;
2944;SDS011;1482;51.398;7.128;2022-11-20T13:17:55;21.20;;;14.43;;
2944;SDS011;1482;51.398;7.128;2022-11-20T13:20:24;21.60;;;14.23;;
2944;SDS011;1482;51.398;7.128;2022-11-20T13:27:51;24.50;;;15.20;;
2944;SDS011;1482;51.398;7.128;2022-11-20T13:30:18;21.87;;;14.50;;
2944;SDS011;1482;51.398;7.128;2022-11-20T13:35:29;25.70;;;15.93;;
2944;SDS011;1482;51.398;7.128;2022-11-20T13:38:07;27.53;;;16.13;;
2944;SDS011;1482;51.398;7.128;2022-11-20T13:40:36;23.93;;;15.23;;
2944;SDS011;1482;51.398;7.128;2022-11-20T13:43:22;27.27;;;15.87;;
2944;SDS011;1482;51.398;7.128;2022-11-20T13:45:54;21.73;;;15.33;;
2944;SDS011;1482;51.398;7.128;2022-11-20T13:48:22;25.13;;;16.20;;
2944;SDS011;1482;51.398;7.128;2022-11-20T13:59:53;25.27;;;16.43;;
2944;SDS011;1482;51.398;7.128;2022-11-20T14:02:23;25.37;;;15.60;;
2944;SDS011;1482;51.398;7.128;2022-11-20T14:04:53;26.07;;;17.70;;
2944;SDS011;1482;51.398;7.128;2022-11-20T14:07:22;24.40;;;16.50;;
2944;SDS011;1482;51.398;7.128;2022-11-20T14:09:56;25.20;;;15.67;;
2944;SDS011;1482;51.398;7.128;2022-11-20T14:12:23;24.10;;;16.07;;
2944;SDS011;1482;51.398;7.128;2022-11-20T14:14:57;25.43;;;16.70;;
2944;SDS011;1482;51.398;7.128;2022-11-20T14:19:59;28.47;;;18.63;;
2944;SDS011;1482;51.398;7.128;2022-11-20T14:22:28;25.07;;;14.37;;
2944;SDS011;1482;51.398;7.128;2022-11-20T14:25:02;27.60;;;18.57;;
2944;SDS011;1482;51.398;7.128;2022-11-20T14:27:32;21.30;;;15.77;;
2944;SDS011;1482;51.398;7.128;2022-11-20T14:30:01;25.90;;;18.00;;
2944;SDS011;1482;51.398;7.128;2022-11-20T14:32:28;26.23;;;16.70;;
2944;SDS011;1482;51.398;7.128;2022-11-20T14:34:55;27.97;;;17.87;;
2944;SDS011;1482;51.398;7.128;2022-11-20T14:37:27;27.50;;;18.23;;
2944;SDS011;1482;51.398;7.128;2022-11-20T14:39:58;27.43;;;18.33;;
2944;SDS011;1482;51.398;7.128;2022-11-20T14:42:27;22.93;;;16.17;;
2944;SDS011;1482;51.398;7.128;2022-11-20T14:44:57;29.97;;;18.60;;
2944;SDS011;1482;51.398;7.128;2022-11-20T14:47:25;23.03;;;17.67;;
2944;SDS011;1482;51.398;7.128;2022-11-20T14:49:55;25.03;;;16.17;;
2944;SDS011;1482;51.398;7.128;2022-11-20T14:52:23;27.07;;;16.10;;
2944;SDS011;1482;51.398;7.128;2022-11-20T14:54:54;25.70;;;18.83;;
2944;SDS011;1482;51.398;7.128;2022-11-20T14:57:27;30.23;;;18.60;;
2944;SDS011;1482;51.398;7.128;2022-11-20T15:00:31;25.63;;;17.40;;
2944;SDS011;1482;51.398;7.128;2022-11-20T15:02:50;22.53;;;14.90;;
2944;SDS011;1482;51.398;7.128;2022-11-20T15:05:17;27.90;;;16.43;;
2944;SDS011;1482;51.398;7.128;2022-11-20T15:07:51;31.53;;;17.40;;
2944;SDS011;1482;51.398;7.128;2022-11-20T15:10:30;28.60;;;16.80;;
2944;SDS011;1482;51.398;7.128;2022-11-20T15:12:57;31.13;;;19.30;;
2944;SDS011;1482;51.398;7.128;2022-11-20T15:18:04;28.40;;;18.43;;
2944;SDS011;1482;51.398;7.128;2022-11-20T15:20:30;28.67;;;17.27;;
2944;SDS011;1482;51.398;7.128;2022-11-20T15:22:57;32.93;;;21.77;;
2944;SDS011;1482;51.398;7.128;2022-11-20T15:25:23;28.93;;;18.03;;
2944;SDS011;1482;51.398;7.128;2022-11-20T15:27:50;31.83;;;18.60;;
2944;SDS011;1482;51.398;7.128;2022-11-20T15:30:19;38.70;;;19.33;;
2944;SDS011;1482;51.398;7.128;2022-11-20T15:32:46;35.23;;;20.27;;
2944;SDS011;1482;51.398;7.128;2022-11-20T15:35:13;35.80;;;20.23;;
2944;SDS011;1482;51.398;7.128;2022-11-20T15:37:39;38.73;;;22.27;;
2944;SDS011;1482;51.398;7.128;2022-11-20T15:40:06;35.00;;;22.50;;
2944;SDS011;1482;51.398;7.128;2022-11-20T15:42:32;38.67;;;21.43;;
2944;SDS011;1482;51.398;7.128;2022-11-20T15:44:59;38.27;;;21.77;;
2944;SDS011;1482;51.398;7.128;2022-11-20T15:47:29;39.30;;;20.20;;
2944;SDS011;1482;51.398;7.128;2022-11-20T15:49:57;38.27;;;22.30;;
2944;SDS011;1482;51.398;7.128;2022-11-20T15:52:22;33.20;;;20.60;;
2944;SDS011;1482;51.398;7.128;2022-11-20T15:54:48;36.00;;;21.30;;
2944;SDS011;1482;51.398;7.128;2022-11-20T15:57:13;39.23;;;21.47;;
2944;SDS011;1482;51.398;7.128;2022-11-20T15:59:39;39.67;;;21.20;;
2944;SDS011;1482;51.398;7.128;2022-11-20T16:02:13;36.43;;;21.20;;
2944;SDS011;1482;51.398;7.128;2022-11-20T16:04:39;38.00;;;23.03;;
2944;SDS011;1482;51.398;7.128;2022-11-20T16:07:05;39.80;;;23.70;;
2944;SDS011;1482;51.398;7.128;2022-11-20T16:09:30;35.87;;;20.73;;
2944;SDS011;1482;51.398;7.128;2022-11-20T16:11:56;41.00;;;23.47;;
2944;SDS011;1482;51.398;7.128;2022-11-20T16:14:24;40.63;;;22.40;;
2944;SDS011;1482;51.398;7.128;2022-11-20T16:17:09;45.27;;;23.10;;
2944;SDS011;1482;51.398;7.128;2022-11-20T16:19:34;39.20;;;21.47;;
2944;SDS011;1482;51.398;7.128;2022-11-20T16:22:00;39.27;;;20.80;;
2944;SDS011;1482;51.398;7.128;2022-11-20T16:24:26;37.17;;;21.50;;
2944;SDS011;1482;51.398;7.128;2022-11-20T16:26:55;41.47;;;22.70;;
2944;SDS011;1482;51.398;7.128;2022-11-20T16:29:21;35.80;;;18.90;;
2944;SDS011;1482;51.398;7.128;2022-11-20T16:31:46;30.73;;;17.73;;